sensor_id;sensor_type;location;lat;lon;timestamp;P1;durP1;ratioP1;P2;durP2;ratioP2
15929;SDS011;8064;51.142;4.780;2022-07-29T00:02:09;4.77;;;1.40;;
15929;SDS011;8064;51.142;4.780;2022-07-29T00:04:35;2.73;;;1.27;;
15929;SDS011;8064;51.142;4.780;2022-07-29T00:07:01;4.50;;;1.50;;
15929;SDS011;8064;51.142;4.780;2022-07-29T00:09:28;3.20;;;1.60;;
15929;SDS011;8064;51.142;4.780;2022-07-29T00:11:55;3.90;;;1.80;;
15929;SDS011;8064;51.142;4.780;2022-07-29T00:14:24;4.40;;;1.80;;
15929;SDS011;8064;51.142;4.780;2022-07-29T00:16:50;4.20;;;1.60;;
15929;SDS011;8064;51.142;4.780;2022-07-29T00:19:15;5.47;;;1.80;;
15929;SDS011;8064;51.142;4.780;2022-07-29T00:21:41;1.63;;;1.27;;
15929;SDS011;8064;51.142;4.780;2022-07-29T00:24:07;4.93;;;1.63;;
15929;SDS011;8064;51.142;4.780;2022-07-29T00:26:33;2.70;;;1.40;;
15929;SDS011;8064;51.142;4.780;2022-07-29T00:28:59;3.33;;;1.57;;
15929;SDS011;8064;51.142;4.780;2022-07-29T00:31:25;4.83;;;1.50;;
15929;SDS011;8064;51.142;4.780;2022-07-29T00:33:51;4.57;;;1.67;;
15929;SDS011;8064;51.142;4.780;2022-07-29T00:36:17;6.87;;;1.77;;
15929;SDS011;8064;51.142;4.780;2022-07-29T00:38:43;5.00;;;1.27;;
15929;SDS011;8064;51.142;4.780;2022-07-29T00:41:10;5.30;;;1.67;;
15929;SDS011;8064;51.142;4.780;2022-07-29T00:43:36;3.80;;;1.40;;
15929;SDS011;8064;51.142;4.780;2022-07-29T00:46:02;2.67;;;1.30;;
15929;SDS011;8064;51.142;4.780;2022-07-29T00:48:28;5.03;;;1.70;;
15929;SDS011;8064;51.142;4.780;2022-07-29T00:50:54;3.37;;;1.63;;
15929;SDS011;8064;51.142;4.780;2022-07-29T00:53:23;3.20;;;1.30;;
15929;SDS011;8064;51.142;4.780;2022-07-29T00:55:50;3.40;;;1.33;;
15929;SDS011;8064;51.142;4.780;2022-07-29T00:58:16;2.23;;;1.30;;
15929;SDS011;8064;51.142;4.780;2022-07-29T01:00:41;3.70;;;1.37;;
15929;SDS011;8064;51.142;4.780;2022-07-29T01:03:08;10.20;;;1.53;;
15929;SDS011;8064;51.142;4.780;2022-07-29T01:05:34;3.67;;;1.43;;
15929;SDS011;8064;51.142;4.780;2022-07-29T01:08:00;5.60;;;1.67;;
15929;SDS011;8064;51.142;4.780;2022-07-29T01:10:27;2.20;;;1.60;;
15929;SDS011;8064;51.142;4.780;2022-07-29T01:12:58;3.77;;;1.30;;
15929;SDS011;8064;51.142;4.780;2022-07-29T01:15:26;3.23;;;1.73;;
15929;SDS011;8064;51.142;4.780;2022-07-29T01:26:27;1.23;;;1.10;;
15929;SDS011;8064;51.142;4.780;2022-07-29T01:31:47;1.53;;;0.90;;
15929;SDS011;8064;51.142;4.780;2022-07-29T01:39:55;2.67;;;1.20;;
15929;SDS011;8064;51.142;4.780;2022-07-29T01:42:35;1.73;;;0.90;;
15929;SDS011;8064;51.142;4.780;2022-07-29T01:53:34;2.77;;;1.20;;
15929;SDS011;8064;51.142;4.780;2022-07-29T01:56:16;3.30;;;1.10;;
15929;SDS011;8064;51.142;4.780;2022-07-29T01:58:45;2.67;;;0.90;;
15929;SDS011;8064;51.142;4.780;2022-07-29T02:01:12;4.00;;;1.20;;
15929;SDS011;8064;51.142;4.780;2022-07-29T02:03:40;3.93;;;1.30;;
15929;SDS011;8064;51.142;4.780;2022-07-29T02:06:09;3.90;;;1.30;;
15929;SDS011;8064;51.142;4.780;2022-07-29T02:08:37;2.27;;;1.20;;
15929;SDS011;8064;51.142;4.780;2022-07-29T02:11:04;5.60;;;1.23;;
15929;SDS011;8064;51.142;4.780;2022-07-29T02:13:32;3.30;;;1.50;;
15929;SDS011;8064;51.142;4.780;2022-07-29T02:16:00;2.00;;;1.40;;
15929;SDS011;8064;51.142;4.780;2022-07-29T02:18:30;2.10;;;1.10;;
15929;SDS011;8064;51.142;4.780;2022-07-29T02:20:58;2.73;;;1.40;;
15929;SDS011;8064;51.142;4.780;2022-07-29T02:23:26;2.73;;;1.20;;
15929;SDS011;8064;51.142;4.780;2022-07-29T02:25:54;3.33;;;1.17;;
15929;SDS011;8064;51.142;4.780;2022-07-29T02:28:21;3.30;;;1.30;;
15929;SDS011;8064;51.142;4.780;2022-07-29T02:30:50;2.07;;;0.90;;
15929;SDS011;8064;51.142;4.780;2022-07-29T02:33:19;2.67;;;1.00;;
15929;SDS011;8064;51.142;4.780;2022-07-29T02:35:48;5.17;;;1.27;;
15929;SDS011;8064;51.142;4.780;2022-07-29T02:38:16;2.97;;;1.20;;
15929;SDS011;8064;51.142;4.780;2022-07-29T02:41:03;4.20;;;1.30;;
15929;SDS011;8064;51.142;4.780;2022-07-29T02:43:34;5.03;;;1.47;;
15929;SDS011;8064;51.142;4.780;2022-07-29T02:46:02;2.57;;;1.17;;
15929;SDS011;8064;51.142;4.780;2022-07-29T02:48:33;3.30;;;1.40;;
15929;SDS011;8064;51.142;4.780;2022-07-29T02:53:48;3.40;;;1.50;;
15929;SDS011;8064;51.142;4.780;2022-07-29T02:56:18;2.93;;;1.50;;
15929;SDS011;8064;51.142;4.780;2022-07-29T02:58:53;1.87;;;1.20;;
15929;SDS011;8064;51.142;4.780;2022-07-29T03:01:23;2.27;;;1.27;;
15929;SDS011;8064;51.142;4.780;2022-07-29T03:03:50;4.57;;;1.50;;
15929;SDS011;8064;51.142;4.780;2022-07-29T03:06:19;2.60;;;1.53;;
15929;SDS011;8064;51.142;4.780;2022-07-29T03:08:47;2.83;;;1.37;;
15929;SDS011;8064;51.142;4.780;2022-07-29T03:11:13;2.53;;;1.43;;
15929;SDS011;8064;51.142;4.780;2022-07-29T03:13:39;2.17;;;1.40;;
15929;SDS011;8064;51.142;4.780;2022-07-29T03:16:06;2.13;;;1.20;;
15929;SDS011;8064;51.142;4.780;2022-07-29T03:18:33;1.80;;;1.40;;
15929;SDS011;8064;51.142;4.780;2022-07-29T03:21:00;2.80;;;1.40;;
15929;SDS011;8064;51.142;4.780;2022-07-29T03:23:26;3.50;;;1.80;;
15929;SDS011;8064;51.142;4.780;2022-07-29T03:25:53;2.80;;;1.60;;
15929;SDS011;8064;51.142;4.780;2022-07-29T03:28:20;3.20;;;1.47;;
15929;SDS011;8064;51.142;4.780;2022-07-29T03:30:46;2.77;;;1.70;;
15929;SDS011;8064;51.142;4.780;2022-07-29T03:33:12;3.30;;;1.70;;
15929;SDS011;8064;51.142;4.780;2022-07-29T03:35:37;1.80;;;1.47;;
15929;SDS011;8064;51.142;4.780;2022-07-29T03:38:03;2.53;;;1.63;;
15929;SDS011;8064;51.142;4.780;2022-07-29T03:40:31;3.80;;;1.50;;
15929;SDS011;8064;51.142;4.780;2022-07-29T03:43:09;2.17;;;1.70;;
15929;SDS011;8064;51.142;4.780;2022-07-29T03:45:37;3.37;;;1.70;;
15929;SDS011;8064;51.142;4.780;2022-07-29T03:48:07;2.87;;;1.40;;
15929;SDS011;8064;51.142;4.780;2022-07-29T03:50:37;3.27;;;1.63;;
15929;SDS011;8064;51.142;4.780;2022-07-29T03:53:03;8.03;;;2.00;;
15929;SDS011;8064;51.142;4.780;2022-07-29T03:55:30;3.27;;;1.60;;
15929;SDS011;8064;51.142;4.780;2022-07-29T03:58:01;6.20;;;1.70;;
15929;SDS011;8064;51.142;4.780;2022-07-29T04:00:28;2.90;;;1.50;;
15929;SDS011;8064;51.142;4.780;2022-07-29T04:02:55;3.57;;;1.60;;
15929;SDS011;8064;51.142;4.780;2022-07-29T04:05:21;2.90;;;1.53;;
15929;SDS011;8064;51.142;4.780;2022-07-29T04:07:47;4.37;;;1.77;;
15929;SDS011;8064;51.142;4.780;2022-07-29T04:10:14;4.97;;;1.80;;
15929;SDS011;8064;51.142;4.780;2022-07-29T04:12:41;3.93;;;1.73;;
15929;SDS011;8064;51.142;4.780;2022-07-29T04:15:07;6.30;;;1.70;;
15929;SDS011;8064;51.142;4.780;2022-07-29T04:17:34;2.40;;;1.60;;
15929;SDS011;8064;51.142;4.780;2022-07-29T04:19:59;1.80;;;1.30;;
15929;SDS011;8064;51.142;4.780;2022-07-29T04:22:25;4.23;;;1.90;;
15929;SDS011;8064;51.142;4.780;2022-07-29T04:24:51;3.90;;;2.20;;
15929;SDS011;8064;51.142;4.780;2022-07-29T04:27:17;2.70;;;1.70;;
15929;SDS011;8064;51.142;4.780;2022-07-29T04:29:42;3.07;;;1.97;;
15929;SDS011;8064;51.142;4.780;2022-07-29T04:32:08;3.40;;;2.00;;
15929;SDS011;8064;51.142;4.780;2022-07-29T04:34:34;4.20;;;2.13;;
15929;SDS011;8064;51.142;4.780;2022-07-29T04:36:59;5.40;;;1.90;;
15929;SDS011;8064;51.142;4.780;2022-07-29T04:39:25;4.00;;;2.00;;
15929;SDS011;8064;51.142;4.780;2022-07-29T04:41:51;6.47;;;1.90;;
15929;SDS011;8064;51.142;4.780;2022-07-29T04:44:17;3.07;;;2.13;;
15929;SDS011;8064;51.142;4.780;2022-07-29T04:46:43;4.47;;;2.00;;
15929;SDS011;8064;51.142;4.780;2022-07-29T04:49:09;2.07;;;1.73;;
15929;SDS011;8064;51.142;4.780;2022-07-29T04:51:34;3.17;;;1.73;;
15929;SDS011;8064;51.142;4.780;2022-07-29T04:54:00;5.73;;;2.20;;
15929;SDS011;8064;51.142;4.780;2022-07-29T04:56:26;3.17;;;1.60;;
15929;SDS011;8064;51.142;4.780;2022-07-29T04:58:52;3.13;;;2.07;;
15929;SDS011;8064;51.142;4.780;2022-07-29T05:01:18;3.23;;;1.73;;
15929;SDS011;8064;51.142;4.780;2022-07-29T05:03:44;3.57;;;1.70;;
15929;SDS011;8064;51.142;4.780;2022-07-29T05:06:10;4.40;;;1.80;;
15929;SDS011;8064;51.142;4.780;2022-07-29T05:08:36;2.63;;;1.90;;
15929;SDS011;8064;51.142;4.780;2022-07-29T05:11:03;4.10;;;2.10;;
15929;SDS011;8064;51.142;4.780;2022-07-29T05:13:28;2.40;;;1.73;;
15929;SDS011;8064;51.142;4.780;2022-07-29T05:15:55;3.33;;;2.00;;
15929;SDS011;8064;51.142;4.780;2022-07-29T05:18:20;6.80;;;1.77;;
15929;SDS011;8064;51.142;4.780;2022-07-29T05:20:46;2.53;;;1.83;;
15929;SDS011;8064;51.142;4.780;2022-07-29T05:23:12;3.00;;;2.10;;
15929;SDS011;8064;51.142;4.780;2022-07-29T05:25:38;2.60;;;1.97;;
15929;SDS011;8064;51.142;4.780;2022-07-29T05:28:04;3.57;;;1.93;;
15929;SDS011;8064;51.142;4.780;2022-07-29T05:30:32;3.43;;;2.23;;
15929;SDS011;8064;51.142;4.780;2022-07-29T05:32:58;3.33;;;2.17;;
15929;SDS011;8064;51.142;4.780;2022-07-29T05:35:24;4.83;;;2.47;;
15929;SDS011;8064;51.142;4.780;2022-07-29T05:37:50;6.17;;;2.60;;
15929;SDS011;8064;51.142;4.780;2022-07-29T05:40:16;3.27;;;2.43;;
15929;SDS011;8064;51.142;4.780;2022-07-29T05:42:41;4.37;;;2.50;;
15929;SDS011;8064;51.142;4.780;2022-07-29T05:45:07;5.80;;;2.90;;
15929;SDS011;8064;51.142;4.780;2022-07-29T05:47:33;3.57;;;2.40;;
15929;SDS011;8064;51.142;4.780;2022-07-29T05:49:59;4.23;;;2.63;;
15929;SDS011;8064;51.142;4.780;2022-07-29T05:52:27;2.80;;;2.57;;
15929;SDS011;8064;51.142;4.780;2022-07-29T05:54:53;4.47;;;2.60;;
15929;SDS011;8064;51.142;4.780;2022-07-29T05:57:19;4.00;;;2.50;;
15929;SDS011;8064;51.142;4.780;2022-07-29T05:59:46;2.83;;;2.30;;
15929;SDS011;8064;51.142;4.780;2022-07-29T06:02:13;3.67;;;2.20;;
15929;SDS011;8064;51.142;4.780;2022-07-29T06:04:39;3.57;;;2.23;;
15929;SDS011;8064;51.142;4.780;2022-07-29T06:07:04;4.47;;;2.23;;
15929;SDS011;8064;51.142;4.780;2022-07-29T06:09:31;4.47;;;2.53;;
15929;SDS011;8064;51.142;4.780;2022-07-29T06:11:57;4.33;;;2.70;;
15929;SDS011;8064;51.142;4.780;2022-07-29T06:14:23;5.00;;;2.10;;
15929;SDS011;8064;51.142;4.780;2022-07-29T06:16:49;3.63;;;2.50;;
15929;SDS011;8064;51.142;4.780;2022-07-29T06:19:15;4.60;;;2.67;;
15929;SDS011;8064;51.142;4.780;2022-07-29T06:21:41;7.43;;;2.57;;
15929;SDS011;8064;51.142;4.780;2022-07-29T06:24:08;3.07;;;2.17;;
15929;SDS011;8064;51.142;4.780;2022-07-29T06:26:35;2.93;;;2.30;;
15929;SDS011;8064;51.142;4.780;2022-07-29T06:29:01;4.43;;;2.40;;
15929;SDS011;8064;51.142;4.780;2022-07-29T06:31:26;4.97;;;2.67;;
15929;SDS011;8064;51.142;4.780;2022-07-29T06:33:52;4.87;;;3.03;;
15929;SDS011;8064;51.142;4.780;2022-07-29T06:36:18;5.07;;;2.50;;
15929;SDS011;8064;51.142;4.780;2022-07-29T06:38:44;2.93;;;2.40;;
15929;SDS011;8064;51.142;4.780;2022-07-29T06:41:09;4.97;;;2.70;;
15929;SDS011;8064;51.142;4.780;2022-07-29T06:43:38;9.90;;;2.70;;
15929;SDS011;8064;51.142;4.780;2022-07-29T06:46:09;4.67;;;2.37;;
15929;SDS011;8064;51.142;4.780;2022-07-29T06:48:36;3.30;;;2.30;;
15929;SDS011;8064;51.142;4.780;2022-07-29T06:51:03;3.10;;;2.10;;
15929;SDS011;8064;51.142;4.780;2022-07-29T06:53:30;6.60;;;2.60;;
15929;SDS011;8064;51.142;4.780;2022-07-29T06:55:57;3.30;;;2.40;;
15929;SDS011;8064;51.142;4.780;2022-07-29T06:58:26;5.67;;;2.63;;
15929;SDS011;8064;51.142;4.780;2022-07-29T07:00:53;5.47;;;2.20;;
15929;SDS011;8064;51.142;4.780;2022-07-29T07:03:20;7.67;;;2.40;;
15929;SDS011;8064;51.142;4.780;2022-07-29T07:05:46;4.87;;;2.30;;
15929;SDS011;8064;51.142;4.780;2022-07-29T07:08:12;5.68;;;2.53;;
15929;SDS011;8064;51.142;4.780;2022-07-29T07:10:38;6.53;;;2.40;;
15929;SDS011;8064;51.142;4.780;2022-07-29T07:13:04;5.60;;;2.35;;
15929;SDS011;8064;51.142;4.780;2022-07-29T07:15:30;3.58;;;2.15;;
15929;SDS011;8064;51.142;4.780;2022-07-29T07:17:56;5.97;;;3.03;;
15929;SDS011;8064;51.142;4.780;2022-07-29T07:20:22;6.30;;;2.33;;
15929;SDS011;8064;51.142;4.780;2022-07-29T07:22:49;8.00;;;2.20;;
15929;SDS011;8064;51.142;4.780;2022-07-29T07:25:15;6.35;;;2.28;;
15929;SDS011;8064;51.142;4.780;2022-07-29T07:27:42;2.40;;;2.20;;
15929;SDS011;8064;51.142;4.780;2022-07-29T07:30:09;3.28;;;2.40;;
15929;SDS011;8064;51.142;4.780;2022-07-29T07:32:35;3.13;;;2.15;;
15929;SDS011;8064;51.142;4.780;2022-07-29T07:35:02;5.18;;;2.40;;
15929;SDS011;8064;51.142;4.780;2022-07-29T07:37:29;3.67;;;2.50;;
15929;SDS011;8064;51.142;4.780;2022-07-29T07:39:55;3.60;;;2.28;;
15929;SDS011;8064;51.142;4.780;2022-07-29T07:42:21;3.20;;;2.30;;
15929;SDS011;8064;51.142;4.780;2022-07-29T07:44:46;4.35;;;2.20;;
15929;SDS011;8064;51.142;4.780;2022-07-29T07:47:13;6.43;;;2.38;;
15929;SDS011;8064;51.142;4.780;2022-07-29T07:49:40;4.68;;;2.78;;
15929;SDS011;8064;51.142;4.780;2022-07-29T07:52:06;3.47;;;2.40;;
15929;SDS011;8064;51.142;4.780;2022-07-29T07:54:32;5.28;;;2.50;;
15929;SDS011;8064;51.142;4.780;2022-07-29T07:56:57;4.13;;;2.63;;
15929;SDS011;8064;51.142;4.780;2022-07-29T07:59:23;5.65;;;2.40;;
15929;SDS011;8064;51.142;4.780;2022-07-29T08:01:49;4.47;;;2.45;;
15929;SDS011;8064;51.142;4.780;2022-07-29T08:04:15;5.00;;;2.22;;
15929;SDS011;8064;51.142;4.780;2022-07-29T08:06:41;2.80;;;2.22;;
15929;SDS011;8064;51.142;4.780;2022-07-29T08:09:07;3.78;;;2.50;;
15929;SDS011;8064;51.142;4.780;2022-07-29T08:11:32;5.15;;;2.47;;
15929;SDS011;8064;51.142;4.780;2022-07-29T08:13:58;5.60;;;2.45;;
15929;SDS011;8064;51.142;4.780;2022-07-29T08:16:26;4.20;;;2.40;;
15929;SDS011;8064;51.142;4.780;2022-07-29T08:18:52;3.38;;;2.00;;
15929;SDS011;8064;51.142;4.780;2022-07-29T08:21:22;5.72;;;2.28;;
15929;SDS011;8064;51.142;4.780;2022-07-29T08:23:49;3.42;;;2.15;;
15929;SDS011;8064;51.142;4.780;2022-07-29T08:26:18;4.95;;;2.33;;
15929;SDS011;8064;51.142;4.780;2022-07-29T08:28:45;5.70;;;2.33;;
15929;SDS011;8064;51.142;4.780;2022-07-29T08:31:14;4.38;;;2.35;;
15929;SDS011;8064;51.142;4.780;2022-07-29T08:33:40;3.08;;;2.63;;
15929;SDS011;8064;51.142;4.780;2022-07-29T08:36:06;4.10;;;2.13;;
15929;SDS011;8064;51.142;4.780;2022-07-29T08:38:32;6.65;;;3.20;;
15929;SDS011;8064;51.142;4.780;2022-07-29T08:40:59;4.80;;;2.47;;
15929;SDS011;8064;51.142;4.780;2022-07-29T08:43:26;3.60;;;2.17;;
15929;SDS011;8064;51.142;4.780;2022-07-29T08:45:53;3.40;;;2.13;;
15929;SDS011;8064;51.142;4.780;2022-07-29T08:48:20;5.53;;;2.28;;
15929;SDS011;8064;51.142;4.780;2022-07-29T08:50:48;5.72;;;2.22;;
15929;SDS011;8064;51.142;4.780;2022-07-29T08:53:18;5.43;;;2.20;;
15929;SDS011;8064;51.142;4.780;2022-07-29T08:55:54;3.95;;;2.10;;
15929;SDS011;8064;51.142;4.780;2022-07-29T08:58:21;4.68;;;2.10;;
15929;SDS011;8064;51.142;4.780;2022-07-29T09:00:50;2.42;;;2.22;;
15929;SDS011;8064;51.142;4.780;2022-07-29T09:03:18;4.43;;;2.67;;
15929;SDS011;8064;51.142;4.780;2022-07-29T09:05:47;3.92;;;2.20;;
15929;SDS011;8064;51.142;4.780;2022-07-29T09:08:14;4.10;;;2.38;;
15929;SDS011;8064;51.142;4.780;2022-07-29T09:10:41;8.60;;;2.40;;
15929;SDS011;8064;51.142;4.780;2022-07-29T09:13:07;5.32;;;2.67;;
15929;SDS011;8064;51.142;4.780;2022-07-29T09:15:33;4.35;;;2.38;;
15929;SDS011;8064;51.142;4.780;2022-07-29T09:17:59;5.40;;;2.22;;
15929;SDS011;8064;51.142;4.780;2022-07-29T09:20:25;2.53;;;1.80;;
15929;SDS011;8064;51.142;4.780;2022-07-29T09:23:11;3.03;;;1.83;;
15929;SDS011;8064;51.142;4.780;2022-07-29T09:25:38;4.10;;;2.17;;
15929;SDS011;8064;51.142;4.780;2022-07-29T09:28:06;3.00;;;2.10;;
15929;SDS011;8064;51.142;4.780;2022-07-29T09:30:33;3.38;;;1.92;;
15929;SDS011;8064;51.142;4.780;2022-07-29T09:33:00;4.22;;;2.00;;
15929;SDS011;8064;51.142;4.780;2022-07-29T09:35:28;3.60;;;2.17;;
15929;SDS011;8064;51.142;4.780;2022-07-29T09:37:54;3.03;;;2.33;;
15929;SDS011;8064;51.142;4.780;2022-07-29T09:40:21;4.20;;;1.95;;
15929;SDS011;8064;51.142;4.780;2022-07-29T09:42:50;2.95;;;1.77;;
15929;SDS011;8064;51.142;4.780;2022-07-29T09:45:30;2.85;;;1.80;;
15929;SDS011;8064;51.142;4.780;2022-07-29T09:47:57;6.95;;;1.75;;
15929;SDS011;8064;51.142;4.780;2022-07-29T09:55:59;3.90;;;1.42;;
15929;SDS011;8064;51.142;4.780;2022-07-29T09:58:25;1.98;;;1.52;;
15929;SDS011;8064;51.142;4.780;2022-07-29T10:00:51;2.25;;;1.55;;
15929;SDS011;8064;51.142;4.780;2022-07-29T10:03:18;3.20;;;1.30;;
15929;SDS011;8064;51.142;4.780;2022-07-29T10:05:45;2.13;;;1.40;;
15929;SDS011;8064;51.142;4.780;2022-07-29T10:08:11;1.95;;;1.00;;
15929;SDS011;8064;51.142;4.780;2022-07-29T10:10:38;1.80;;;1.38;;
15929;SDS011;8064;51.142;4.780;2022-07-29T10:15:51;2.08;;;1.30;;
15929;SDS011;8064;51.142;4.780;2022-07-29T10:18:17;3.30;;;1.08;;
15929;SDS011;8064;51.142;4.780;2022-07-29T10:20:44;2.78;;;1.20;;
15929;SDS011;8064;51.142;4.780;2022-07-29T10:23:10;4.63;;;1.67;;
15929;SDS011;8064;51.142;4.780;2022-07-29T10:25:37;5.05;;;1.40;;
15929;SDS011;8064;51.142;4.780;2022-07-29T10:28:04;3.38;;;1.50;;
15929;SDS011;8064;51.142;4.780;2022-07-29T10:30:31;2.95;;;1.30;;
15929;SDS011;8064;51.142;4.780;2022-07-29T10:33:07;3.90;;;1.40;;
15929;SDS011;8064;51.142;4.780;2022-07-29T10:46:50;4.07;;;1.55;;
15929;SDS011;8064;51.142;4.780;2022-07-29T10:49:18;3.58;;;1.60;;
15929;SDS011;8064;51.142;4.780;2022-07-29T10:54:42;5.28;;;1.42;;
15929;SDS011;8064;51.142;4.780;2022-07-29T10:59:38;4.25;;;1.20;;
15929;SDS011;8064;51.142;4.780;2022-07-29T11:05:01;3.47;;;1.88;;
15929;SDS011;8064;51.142;4.780;2022-07-29T11:07:28;2.47;;;1.60;;
15929;SDS011;8064;51.142;4.780;2022-07-29T11:23:01;3.75;;;1.55;;
15929;SDS011;8064;51.142;4.780;2022-07-29T11:25:42;2.80;;;1.50;;
15929;SDS011;8064;51.142;4.780;2022-07-29T11:28:08;1.80;;;1.33;;
15929;SDS011;8064;51.142;4.780;2022-07-29T11:36:07;2.22;;;1.42;;
15929;SDS011;8064;51.142;4.780;2022-07-29T11:38:33;3.78;;;1.48;;
15929;SDS011;8064;51.142;4.780;2022-07-29T11:44:15;6.22;;;1.35;;
15929;SDS011;8064;51.142;4.780;2022-07-29T11:46:50;2.60;;;1.13;;
15929;SDS011;8064;51.142;4.780;2022-07-29T11:49:36;5.10;;;1.35;;
15929;SDS011;8064;51.142;4.780;2022-07-29T11:52:10;3.35;;;1.30;;
15929;SDS011;8064;51.142;4.780;2022-07-29T11:54:36;4.18;;;1.23;;
15929;SDS011;8064;51.142;4.780;2022-07-29T11:57:06;2.47;;;1.20;;
15929;SDS011;8064;51.142;4.780;2022-07-29T11:59:37;1.65;;;1.20;;
15929;SDS011;8064;51.142;4.780;2022-07-29T12:02:06;3.72;;;1.48;;
15929;SDS011;8064;51.142;4.780;2022-07-29T12:04:33;2.85;;;1.20;;
15929;SDS011;8064;51.142;4.780;2022-07-29T12:07:13;2.47;;;1.70;;
15929;SDS011;8064;51.142;4.780;2022-07-29T12:09:38;3.00;;;1.50;;
15929;SDS011;8064;51.142;4.780;2022-07-29T12:12:04;3.30;;;1.30;;
15929;SDS011;8064;51.142;4.780;2022-07-29T12:14:32;5.10;;;1.27;;
15929;SDS011;8064;51.142;4.780;2022-07-29T12:16:58;4.15;;;1.75;;
15929;SDS011;8064;51.142;4.780;2022-07-29T12:19:25;3.53;;;1.55;;
15929;SDS011;8064;51.142;4.780;2022-07-29T12:21:53;5.53;;;1.27;;
15929;SDS011;8064;51.142;4.780;2022-07-29T12:24:20;4.35;;;1.30;;
15929;SDS011;8064;51.142;4.780;2022-07-29T12:26:57;2.28;;;1.45;;
15929;SDS011;8064;51.142;4.780;2022-07-29T12:29:24;3.47;;;1.40;;
15929;SDS011;8064;51.142;4.780;2022-07-29T12:31:53;2.13;;;1.40;;
15929;SDS011;8064;51.142;4.780;2022-07-29T12:34:19;2.03;;;1.27;;
15929;SDS011;8064;51.142;4.780;2022-07-29T12:36:47;4.85;;;1.35;;
15929;SDS011;8064;51.142;4.780;2022-07-29T12:39:15;2.53;;;1.20;;
15929;SDS011;8064;51.142;4.780;2022-07-29T12:41:42;3.70;;;1.40;;
15929;SDS011;8064;51.142;4.780;2022-07-29T12:44:08;2.65;;;1.30;;
15929;SDS011;8064;51.142;4.780;2022-07-29T12:46:34;2.08;;;1.33;;
15929;SDS011;8064;51.142;4.780;2022-07-29T12:49:00;3.58;;;1.58;;
15929;SDS011;8064;51.142;4.780;2022-07-29T12:51:37;3.60;;;1.60;;
15929;SDS011;8064;51.142;4.780;2022-07-29T12:56:45;4.38;;;1.10;;
15929;SDS011;8064;51.142;4.780;2022-07-29T12:59:12;2.08;;;1.20;;
15929;SDS011;8064;51.142;4.780;2022-07-29T13:01:38;5.80;;;1.65;;
15929;SDS011;8064;51.142;4.780;2022-07-29T13:04:04;4.55;;;1.50;;
15929;SDS011;8064;51.142;4.780;2022-07-29T13:06:43;4.30;;;1.42;;
15929;SDS011;8064;51.142;4.780;2022-07-29T13:09:12;6.47;;;1.65;;
15929;SDS011;8064;51.142;4.780;2022-07-29T13:11:41;1.73;;;1.13;;
15929;SDS011;8064;51.142;4.780;2022-07-29T13:14:09;3.50;;;1.90;;
15929;SDS011;8064;51.142;4.780;2022-07-29T13:16:37;7.18;;;1.60;;
15929;SDS011;8064;51.142;4.780;2022-07-29T13:22:46;3.40;;;1.65;;
15929;SDS011;8064;51.142;4.780;2022-07-29T13:25:13;3.35;;;1.67;;
15929;SDS011;8064;51.142;4.780;2022-07-29T13:27:39;3.00;;;1.40;;
15929;SDS011;8064;51.142;4.780;2022-07-29T13:30:06;3.83;;;1.42;;
15929;SDS011;8064;51.142;4.780;2022-07-29T13:32:33;3.05;;;1.60;;
15929;SDS011;8064;51.142;4.780;2022-07-29T13:35:00;4.97;;;1.45;;
15929;SDS011;8064;51.142;4.780;2022-07-29T13:37:28;2.38;;;1.30;;
15929;SDS011;8064;51.142;4.780;2022-07-29T13:39:55;4.03;;;1.40;;
15929;SDS011;8064;51.142;4.780;2022-07-29T13:42:22;2.33;;;1.20;;
15929;SDS011;8064;51.142;4.780;2022-07-29T13:44:48;2.95;;;1.35;;
15929;SDS011;8064;51.142;4.780;2022-07-29T13:47:15;2.08;;;1.30;;
15929;SDS011;8064;51.142;4.780;2022-07-29T13:49:41;2.92;;;1.33;;
15929;SDS011;8064;51.142;4.780;2022-07-29T13:52:07;3.38;;;1.48;;
15929;SDS011;8064;51.142;4.780;2022-07-29T13:54:33;2.63;;;1.52;;
15929;SDS011;8064;51.142;4.780;2022-07-29T13:57:02;3.65;;;1.67;;
15929;SDS011;8064;51.142;4.780;2022-07-29T13:59:28;2.25;;;1.38;;
15929;SDS011;8064;51.142;4.780;2022-07-29T14:01:54;2.45;;;1.70;;
15929;SDS011;8064;51.142;4.780;2022-07-29T14:04:20;4.40;;;1.27;;
15929;SDS011;8064;51.142;4.780;2022-07-29T14:06:49;3.35;;;1.50;;
15929;SDS011;8064;51.142;4.780;2022-07-29T14:09:16;3.47;;;1.40;;
15929;SDS011;8064;51.142;4.780;2022-07-29T14:11:42;2.78;;;1.30;;
15929;SDS011;8064;51.142;4.780;2022-07-29T14:14:08;5.45;;;1.30;;
15929;SDS011;8064;51.142;4.780;2022-07-29T14:16:35;3.58;;;1.40;;
15929;SDS011;8064;51.142;4.780;2022-07-29T14:19:01;4.15;;;1.73;;
15929;SDS011;8064;51.142;4.780;2022-07-29T14:21:27;2.03;;;1.30;;
15929;SDS011;8064;51.142;4.780;2022-07-29T14:23:52;1.80;;;1.20;;
15929;SDS011;8064;51.142;4.780;2022-07-29T14:26:20;1.50;;;1.33;;
15929;SDS011;8064;51.142;4.780;2022-07-29T14:28:47;1.42;;;1.33;;
15929;SDS011;8064;51.142;4.780;2022-07-29T14:31:16;5.00;;;1.60;;
15929;SDS011;8064;51.142;4.780;2022-07-29T14:33:42;2.85;;;1.30;;
15929;SDS011;8064;51.142;4.780;2022-07-29T14:36:08;4.00;;;1.30;;
15929;SDS011;8064;51.142;4.780;2022-07-29T14:38:34;4.22;;;1.38;;
15929;SDS011;8064;51.142;4.780;2022-07-29T14:41:00;2.75;;;1.50;;
15929;SDS011;8064;51.142;4.780;2022-07-29T14:43:26;4.63;;;1.20;;
15929;SDS011;8064;51.142;4.780;2022-07-29T14:45:52;2.08;;;1.40;;
15929;SDS011;8064;51.142;4.780;2022-07-29T14:48:18;1.33;;;1.10;;
15929;SDS011;8064;51.142;4.780;2022-07-29T14:50:43;2.47;;;1.42;;
15929;SDS011;8064;51.142;4.780;2022-07-29T14:53:09;2.40;;;1.33;;
15929;SDS011;8064;51.142;4.780;2022-07-29T14:55:37;3.08;;;1.17;;
15929;SDS011;8064;51.142;4.780;2022-07-29T14:58:02;3.97;;;1.40;;
15929;SDS011;8064;51.142;4.780;2022-07-29T15:00:28;3.25;;;1.30;;
15929;SDS011;8064;51.142;4.780;2022-07-29T15:02:57;3.67;;;1.30;;
15929;SDS011;8064;51.142;4.780;2022-07-29T15:05:24;3.03;;;1.40;;
15929;SDS011;8064;51.142;4.780;2022-07-29T15:07:50;2.83;;;1.50;;
15929;SDS011;8064;51.142;4.780;2022-07-29T15:10:16;4.30;;;1.88;;
15929;SDS011;8064;51.142;4.780;2022-07-29T15:12:42;3.88;;;1.67;;
15929;SDS011;8064;51.142;4.780;2022-07-29T15:15:08;2.17;;;1.38;;
15929;SDS011;8064;51.142;4.780;2022-07-29T15:17:34;3.88;;;1.55;;
15929;SDS011;8064;51.142;4.780;2022-07-29T15:20:00;2.20;;;1.25;;
15929;SDS011;8064;51.142;4.780;2022-07-29T15:22:26;4.63;;;1.80;;
15929;SDS011;8064;51.142;4.780;2022-07-29T15:24:52;3.53;;;1.85;;
15929;SDS011;8064;51.142;4.780;2022-07-29T15:27:18;3.30;;;1.30;;
15929;SDS011;8064;51.142;4.780;2022-07-29T15:29:43;2.95;;;1.98;;
15929;SDS011;8064;51.142;4.780;2022-07-29T15:32:10;3.45;;;1.70;;
15929;SDS011;8064;51.142;4.780;2022-07-29T15:34:36;3.42;;;2.03;;
15929;SDS011;8064;51.142;4.780;2022-07-29T15:37:03;5.93;;;1.90;;
15929;SDS011;8064;51.142;4.780;2022-07-29T15:39:29;4.10;;;1.77;;
15929;SDS011;8064;51.142;4.780;2022-07-29T15:41:55;5.38;;;2.00;;
15929;SDS011;8064;51.142;4.780;2022-07-29T15:44:21;3.83;;;1.75;;
15929;SDS011;8064;51.142;4.780;2022-07-29T15:46:47;8.18;;;2.13;;
15929;SDS011;8064;51.142;4.780;2022-07-29T15:49:32;3.00;;;1.70;;
15929;SDS011;8064;51.142;4.780;2022-07-29T15:52:09;3.40;;;1.75;;
15929;SDS011;8064;51.142;4.780;2022-07-29T15:54:36;4.68;;;1.98;;
15929;SDS011;8064;51.142;4.780;2022-07-29T15:57:03;3.90;;;1.90;;
15929;SDS011;8064;51.142;4.780;2022-07-29T15:59:30;6.32;;;1.80;;
15929;SDS011;8064;51.142;4.780;2022-07-29T16:01:56;2.10;;;1.60;;
15929;SDS011;8064;51.142;4.780;2022-07-29T16:04:22;3.60;;;1.75;;
15929;SDS011;8064;51.142;4.780;2022-07-29T16:06:48;1.85;;;1.55;;
15929;SDS011;8064;51.142;4.780;2022-07-29T16:09:14;5.68;;;2.15;;
15929;SDS011;8064;51.142;4.780;2022-07-29T16:11:41;4.20;;;1.98;;
15929;SDS011;8064;51.142;4.780;2022-07-29T16:14:07;4.60;;;1.83;;
15929;SDS011;8064;51.142;4.780;2022-07-29T16:16:35;4.20;;;1.67;;
15929;SDS011;8064;51.142;4.780;2022-07-29T16:19:01;2.38;;;1.48;;
15929;SDS011;8064;51.142;4.780;2022-07-29T16:21:27;4.97;;;1.80;;
15929;SDS011;8064;51.142;4.780;2022-07-29T16:23:56;2.08;;;1.45;;
15929;SDS011;8064;51.142;4.780;2022-07-29T16:26:22;4.10;;;1.50;;